sensor_id;sensor_type;location;lat;lon;timestamp;P1;durP1;ratioP1;P2;durP2;ratioP2
44139;SDS011;29803;51.048;4.686;2023-01-04T00:00:04;10.93;;;2.78;;
44139;SDS011;29803;51.048;4.686;2023-01-04T00:02:35;6.00;;;2.47;;
44139;SDS011;29803;51.048;4.686;2023-01-04T00:05:05;5.97;;;2.05;;
44139;SDS011;29803;51.048;4.686;2023-01-04T00:07:36;12.30;;;2.50;;
44139;SDS011;29803;51.048;4.686;2023-01-04T00:10:06;9.75;;;2.20;;
44139;SDS011;29803;51.048;4.686;2023-01-04T00:12:37;10.85;;;2.78;;
44139;SDS011;29803;51.048;4.686;2023-01-04T00:15:08;10.40;;;2.70;;
44139;SDS011;29803;51.048;4.686;2023-01-04T00:17:39;8.60;;;2.00;;
44139;SDS011;29803;51.048;4.686;2023-01-04T00:20:09;8.35;;;2.47;;
44139;SDS011;29803;51.048;4.686;2023-01-04T00:22:40;6.50;;;2.35;;
44139;SDS011;29803;51.048;4.686;2023-01-04T00:25:10;7.53;;;1.83;;
44139;SDS011;29803;51.048;4.686;2023-01-04T00:27:40;4.70;;;2.20;;
44139;SDS011;29803;51.048;4.686;2023-01-04T00:30:11;2.35;;;1.40;;
44139;SDS011;29803;51.048;4.686;2023-01-04T00:32:42;7.55;;;1.60;;
44139;SDS011;29803;51.048;4.686;2023-01-04T00:35:13;6.35;;;1.80;;
44139;SDS011;29803;51.048;4.686;2023-01-04T00:37:43;6.97;;;2.28;;
44139;SDS011;29803;51.048;4.686;2023-01-04T00:40:14;6.60;;;1.88;;
44139;SDS011;29803;51.048;4.686;2023-01-04T00:42:44;5.78;;;1.48;;
44139;SDS011;29803;51.048;4.686;2023-01-04T00:45:14;3.00;;;1.40;;
44139;SDS011;29803;51.048;4.686;2023-01-04T00:47:45;6.25;;;1.52;;
44139;SDS011;29803;51.048;4.686;2023-01-04T00:50:15;4.55;;;1.35;;
44139;SDS011;29803;51.048;4.686;2023-01-04T00:52:48;6.10;;;1.20;;
44139;SDS011;29803;51.048;4.686;2023-01-04T00:55:18;4.10;;;1.40;;
44139;SDS011;29803;51.048;4.686;2023-01-04T00:57:49;3.92;;;1.10;;
44139;SDS011;29803;51.048;4.686;2023-01-04T01:00:19;4.05;;;1.30;;
44139;SDS011;29803;51.048;4.686;2023-01-04T01:02:50;7.28;;;1.58;;
44139;SDS011;29803;51.048;4.686;2023-01-04T01:05:20;1.92;;;1.20;;
44139;SDS011;29803;51.048;4.686;2023-01-04T01:07:51;6.68;;;1.27;;
44139;SDS011;29803;51.048;4.686;2023-01-04T01:10:21;2.83;;;1.20;;
44139;SDS011;29803;51.048;4.686;2023-01-04T01:12:52;2.88;;;1.27;;
44139;SDS011;29803;51.048;4.686;2023-01-04T01:15:23;3.70;;;1.27;;
44139;SDS011;29803;51.048;4.686;2023-01-04T01:17:53;1.77;;;1.15;;
44139;SDS011;29803;51.048;4.686;2023-01-04T01:20:24;5.15;;;1.40;;
44139;SDS011;29803;51.048;4.686;2023-01-04T01:22:54;1.70;;;1.00;;
44139;SDS011;29803;51.048;4.686;2023-01-04T01:25:24;2.33;;;1.13;;
44139;SDS011;29803;51.048;4.686;2023-01-04T01:27:55;4.57;;;0.90;;
44139;SDS011;29803;51.048;4.686;2023-01-04T01:30:25;2.88;;;1.00;;
44139;SDS011;29803;51.048;4.686;2023-01-04T01:32:56;3.50;;;1.02;;
44139;SDS011;29803;51.048;4.686;2023-01-04T01:35:26;2.42;;;1.13;;
44139;SDS011;29803;51.048;4.686;2023-01-04T01:37:57;2.65;;;1.20;;
44139;SDS011;29803;51.048;4.686;2023-01-04T01:40:27;8.90;;;1.00;;
44139;SDS011;29803;51.048;4.686;2023-01-04T01:42:58;3.20;;;0.95;;
44139;SDS011;29803;51.048;4.686;2023-01-04T01:45:31;1.90;;;0.82;;
44139;SDS011;29803;51.048;4.686;2023-01-04T01:48:04;3.70;;;1.13;;
44139;SDS011;29803;51.048;4.686;2023-01-04T01:50:43;2.42;;;1.10;;
44139;SDS011;29803;51.048;4.686;2023-01-04T01:53:18;5.45;;;1.17;;
44139;SDS011;29803;51.048;4.686;2023-01-04T01:55:50;3.28;;;1.05;;
44139;SDS011;29803;51.048;4.686;2023-01-04T01:58:23;4.82;;;0.93;;
44139;SDS011;29803;51.048;4.686;2023-01-04T02:00:57;2.10;;;1.10;;
44139;SDS011;29803;51.048;4.686;2023-01-04T02:03:29;6.15;;;1.20;;
44139;SDS011;29803;51.048;4.686;2023-01-04T02:06:04;4.25;;;1.27;;
44139;SDS011;29803;51.048;4.686;2023-01-04T02:08:38;2.50;;;1.10;;
44139;SDS011;29803;51.048;4.686;2023-01-04T02:11:11;3.30;;;1.30;;
44139;SDS011;29803;51.048;4.686;2023-01-04T02:13:41;2.13;;;1.17;;
44139;SDS011;29803;51.048;4.686;2023-01-04T02:22:19;6.93;;;1.30;;
44139;SDS011;29803;51.048;4.686;2023-01-04T02:27:57;2.22;;;1.50;;
44139;SDS011;29803;51.048;4.686;2023-01-04T02:30:37;4.60;;;1.27;;
44139;SDS011;29803;51.048;4.686;2023-01-04T02:38:51;2.45;;;1.58;;
44139;SDS011;29803;51.048;4.686;2023-01-04T02:42:06;3.38;;;1.40;;
44139;SDS011;29803;51.048;4.686;2023-01-04T02:44:42;2.97;;;1.48;;
44139;SDS011;29803;51.048;4.686;2023-01-04T02:47:24;5.53;;;1.60;;
44139;SDS011;29803;51.048;4.686;2023-01-04T02:50:26;3.83;;;2.00;;
44139;SDS011;29803;51.048;4.686;2023-01-04T02:53:09;4.07;;;1.95;;
44139;SDS011;29803;51.048;4.686;2023-01-04T03:04:47;9.40;;;2.13;;
44139;SDS011;29803;51.048;4.686;2023-01-04T03:07:52;4.50;;;2.10;;
44139;SDS011;29803;51.048;4.686;2023-01-04T03:13:26;8.98;;;2.15;;
44139;SDS011;29803;51.048;4.686;2023-01-04T03:16:03;6.18;;;2.53;;
44139;SDS011;29803;51.048;4.686;2023-01-04T03:18:41;8.90;;;2.70;;
44139;SDS011;29803;51.048;4.686;2023-01-04T03:21:15;8.00;;;2.40;;
44139;SDS011;29803;51.048;4.686;2023-01-04T03:23:49;5.05;;;2.15;;
44139;SDS011;29803;51.048;4.686;2023-01-04T03:26:43;11.98;;;2.63;;
44139;SDS011;29803;51.048;4.686;2023-01-04T03:29:37;6.38;;;2.50;;
44139;SDS011;29803;51.048;4.686;2023-01-04T03:32:31;6.20;;;2.10;;
44139;SDS011;29803;51.048;4.686;2023-01-04T03:38:28;6.93;;;2.28;;
44139;SDS011;29803;51.048;4.686;2023-01-04T03:41:34;9.43;;;1.95;;
44139;SDS011;29803;51.048;4.686;2023-01-04T03:53:37;5.65;;;2.10;;
44139;SDS011;29803;51.048;4.686;2023-01-04T03:56:26;3.95;;;1.80;;
44139;SDS011;29803;51.048;4.686;2023-01-04T03:58:59;6.85;;;1.80;;
44139;SDS011;29803;51.048;4.686;2023-01-04T04:01:30;6.90;;;1.83;;
44139;SDS011;29803;51.048;4.686;2023-01-04T04:04:01;3.63;;;1.63;;
44139;SDS011;29803;51.048;4.686;2023-01-04T04:06:50;4.80;;;1.98;;
44139;SDS011;29803;51.048;4.686;2023-01-04T04:09:39;4.20;;;1.30;;
44139;SDS011;29803;51.048;4.686;2023-01-04T04:12:09;6.57;;;2.08;;
44139;SDS011;29803;51.048;4.686;2023-01-04T04:14:40;6.70;;;1.58;;
44139;SDS011;29803;51.048;4.686;2023-01-04T04:17:10;2.67;;;1.63;;
44139;SDS011;29803;51.048;4.686;2023-01-04T04:19:41;5.15;;;1.73;;
44139;SDS011;29803;51.048;4.686;2023-01-04T04:22:11;2.25;;;1.33;;
44139;SDS011;29803;51.048;4.686;2023-01-04T04:24:42;4.38;;;1.50;;
44139;SDS011;29803;51.048;4.686;2023-01-04T04:27:12;4.13;;;1.52;;
44139;SDS011;29803;51.048;4.686;2023-01-04T04:29:43;4.05;;;1.35;;
44139;SDS011;29803;51.048;4.686;2023-01-04T04:32:13;5.43;;;1.63;;
44139;SDS011;29803;51.048;4.686;2023-01-04T04:34:44;7.75;;;1.55;;
44139;SDS011;29803;51.048;4.686;2023-01-04T04:37:14;6.20;;;1.30;;
44139;SDS011;29803;51.048;4.686;2023-01-04T04:39:45;2.60;;;1.10;;
44139;SDS011;29803;51.048;4.686;2023-01-04T04:42:15;6.95;;;1.50;;
44139;SDS011;29803;51.048;4.686;2023-01-04T04:44:46;5.65;;;1.52;;
44139;SDS011;29803;51.048;4.686;2023-01-04T04:47:16;6.45;;;1.33;;
44139;SDS011;29803;51.048;4.686;2023-01-04T04:49:47;2.55;;;1.38;;
44139;SDS011;29803;51.048;4.686;2023-01-04T04:52:17;3.97;;;1.17;;
44139;SDS011;29803;51.048;4.686;2023-01-04T04:54:48;18.10;;;2.47;;
44139;SDS011;29803;51.048;4.686;2023-01-04T04:57:18;3.38;;;1.00;;
44139;SDS011;29803;51.048;4.686;2023-01-04T04:59:48;3.97;;;1.10;;
44139;SDS011;29803;51.048;4.686;2023-01-04T05:02:19;3.20;;;0.85;;
44139;SDS011;29803;51.048;4.686;2023-01-04T05:04:50;5.45;;;1.42;;
44139;SDS011;29803;51.048;4.686;2023-01-04T05:07:20;5.25;;;1.50;;
44139;SDS011;29803;51.048;4.686;2023-01-04T05:09:51;2.60;;;0.98;;
44139;SDS011;29803;51.048;4.686;2023-01-04T05:12:21;2.95;;;1.20;;
44139;SDS011;29803;51.048;4.686;2023-01-04T05:15:10;6.40;;;1.55;;
44139;SDS011;29803;51.048;4.686;2023-01-04T05:17:40;5.20;;;1.30;;
44139;SDS011;29803;51.048;4.686;2023-01-04T05:20:11;2.00;;;0.80;;
44139;SDS011;29803;51.048;4.686;2023-01-04T05:22:41;2.92;;;1.40;;
44139;SDS011;29803;51.048;4.686;2023-01-04T05:25:12;4.53;;;1.40;;
44139;SDS011;29803;51.048;4.686;2023-01-04T05:27:43;6.47;;;1.50;;
44139;SDS011;29803;51.048;4.686;2023-01-04T05:30:14;3.28;;;1.02;;
44139;SDS011;29803;51.048;4.686;2023-01-04T05:33:05;4.30;;;0.95;;
44139;SDS011;29803;51.048;4.686;2023-01-04T05:35:36;2.03;;;0.90;;
44139;SDS011;29803;51.048;4.686;2023-01-04T05:38:07;7.15;;;1.15;;
44139;SDS011;29803;51.048;4.686;2023-01-04T05:40:37;1.15;;;0.70;;
44139;SDS011;29803;51.048;4.686;2023-01-04T05:43:08;1.80;;;1.20;;
44139;SDS011;29803;51.048;4.686;2023-01-04T05:45:39;5.85;;;1.02;;
44139;SDS011;29803;51.048;4.686;2023-01-04T05:48:12;1.60;;;1.00;;
44139;SDS011;29803;51.048;4.686;2023-01-04T05:50:42;3.90;;;1.60;;
44139;SDS011;29803;51.048;4.686;2023-01-04T05:53:15;3.15;;;1.00;;
44139;SDS011;29803;51.048;4.686;2023-01-04T05:55:47;4.47;;;1.27;;
44139;SDS011;29803;51.048;4.686;2023-01-04T05:58:18;3.60;;;1.00;;
44139;SDS011;29803;51.048;4.686;2023-01-04T06:00:48;3.58;;;0.60;;
44139;SDS011;29803;51.048;4.686;2023-01-04T06:03:19;1.95;;;0.70;;
44139;SDS011;29803;51.048;4.686;2023-01-04T06:05:50;3.20;;;1.00;;
44139;SDS011;29803;51.048;4.686;2023-01-04T06:08:21;1.50;;;0.68;;
44139;SDS011;29803;51.048;4.686;2023-01-04T06:10:52;3.17;;;0.70;;
44139;SDS011;29803;51.048;4.686;2023-01-04T06:13:23;2.17;;;0.70;;
44139;SDS011;29803;51.048;4.686;2023-01-04T06:15:53;2.03;;;0.70;;
44139;SDS011;29803;51.048;4.686;2023-01-04T06:18:24;3.60;;;0.75;;
44139;SDS011;29803;51.048;4.686;2023-01-04T06:20:54;1.55;;;0.60;;
44139;SDS011;29803;51.048;4.686;2023-01-04T06:23:25;3.75;;;0.93;;
44139;SDS011;29803;51.048;4.686;2023-01-04T06:25:55;3.65;;;0.70;;
44139;SDS011;29803;51.048;4.686;2023-01-04T06:28:26;1.63;;;1.00;;
44139;SDS011;29803;51.048;4.686;2023-01-04T06:31:01;2.50;;;0.95;;
44139;SDS011;29803;51.048;4.686;2023-01-04T06:33:36;2.70;;;0.60;;
44139;SDS011;29803;51.048;4.686;2023-01-04T06:36:07;3.78;;;0.77;;
44139;SDS011;29803;51.048;4.686;2023-01-04T06:38:38;2.28;;;0.70;;
44139;SDS011;29803;51.048;4.686;2023-01-04T06:41:08;1.08;;;0.50;;
44139;SDS011;29803;51.048;4.686;2023-01-04T06:43:39;2.15;;;0.60;;
44139;SDS011;29803;51.048;4.686;2023-01-04T06:46:09;2.08;;;0.75;;
44139;SDS011;29803;51.048;4.686;2023-01-04T06:48:40;4.25;;;1.05;;
44139;SDS011;29803;51.048;4.686;2023-01-04T06:51:10;4.38;;;0.60;;
44139;SDS011;29803;51.048;4.686;2023-01-04T06:53:41;2.42;;;0.73;;
44139;SDS011;29803;51.048;4.686;2023-01-04T06:56:12;0.70;;;0.55;;
44139;SDS011;29803;51.048;4.686;2023-01-04T06:58:42;1.40;;;0.73;;
44139;SDS011;29803;51.048;4.686;2023-01-04T07:01:13;3.60;;;0.73;;
44139;SDS011;29803;51.048;4.686;2023-01-04T07:03:43;3.25;;;0.88;;
44139;SDS011;29803;51.048;4.686;2023-01-04T07:06:14;3.90;;;0.73;;
44139;SDS011;29803;51.048;4.686;2023-01-04T07:08:44;5.45;;;0.80;;
44139;SDS011;29803;51.048;4.686;2023-01-04T07:11:15;1.65;;;0.85;;
44139;SDS011;29803;51.048;4.686;2023-01-04T07:13:45;4.68;;;0.80;;
44139;SDS011;29803;51.048;4.686;2023-01-04T07:16:16;3.88;;;0.73;;
44139;SDS011;29803;51.048;4.686;2023-01-04T07:18:46;4.82;;;0.90;;
44139;SDS011;29803;51.048;4.686;2023-01-04T07:21:17;7.55;;;1.00;;
44139;SDS011;29803;51.048;4.686;2023-01-04T07:23:47;3.00;;;0.80;;
44139;SDS011;29803;51.048;4.686;2023-01-04T07:26:18;1.83;;;0.80;;
44139;SDS011;29803;51.048;4.686;2023-01-04T07:28:48;2.17;;;0.80;;
44139;SDS011;29803;51.048;4.686;2023-01-04T07:31:37;3.75;;;1.25;;
44139;SDS011;29803;51.048;4.686;2023-01-04T07:34:08;2.97;;;0.60;;
44139;SDS011;29803;51.048;4.686;2023-01-04T07:36:38;4.30;;;1.25;;
44139;SDS011;29803;51.048;4.686;2023-01-04T07:39:09;4.97;;;1.65;;
44139;SDS011;29803;51.048;4.686;2023-01-04T07:41:41;2.92;;;0.90;;
44139;SDS011;29803;51.048;4.686;2023-01-04T07:44:12;4.43;;;1.02;;
44139;SDS011;29803;51.048;4.686;2023-01-04T07:46:44;1.77;;;0.70;;
44139;SDS011;29803;51.048;4.686;2023-01-04T07:49:14;4.85;;;0.85;;
44139;SDS011;29803;51.048;4.686;2023-01-04T07:51:47;5.57;;;1.02;;
44139;SDS011;29803;51.048;4.686;2023-01-04T07:54:18;4.93;;;1.00;;
44139;SDS011;29803;51.048;4.686;2023-01-04T07:56:49;4.13;;;1.38;;
44139;SDS011;29803;51.048;4.686;2023-01-04T07:59:20;4.63;;;1.05;;
44139;SDS011;29803;51.048;4.686;2023-01-04T08:01:50;4.38;;;1.20;;
44139;SDS011;29803;51.048;4.686;2023-01-04T08:04:21;6.47;;;1.00;;
44139;SDS011;29803;51.048;4.686;2023-01-04T08:06:53;2.85;;;0.80;;
44139;SDS011;29803;51.048;4.686;2023-01-04T08:09:23;2.65;;;0.57;;
44139;SDS011;29803;51.048;4.686;2023-01-04T08:11:54;2.03;;;0.70;;
44139;SDS011;29803;51.048;4.686;2023-01-04T08:14:24;5.15;;;1.70;;
44139;SDS011;29803;51.048;4.686;2023-01-04T08:16:55;3.72;;;1.13;;
44139;SDS011;29803;51.048;4.686;2023-01-04T08:19:25;5.55;;;1.25;;
44139;SDS011;29803;51.048;4.686;2023-01-04T08:21:56;5.78;;;1.15;;
44139;SDS011;29803;51.048;4.686;2023-01-04T08:24:26;11.52;;;4.65;;
44139;SDS011;29803;51.048;4.686;2023-01-04T08:26:57;5.90;;;1.20;;
44139;SDS011;29803;51.048;4.686;2023-01-04T08:29:28;7.85;;;2.30;;
44139;SDS011;29803;51.048;4.686;2023-01-04T08:31:58;2.10;;;1.20;;
44139;SDS011;29803;51.048;4.686;2023-01-04T08:34:29;3.08;;;1.20;;
44139;SDS011;29803;51.048;4.686;2023-01-04T08:37:01;5.72;;;2.67;;
44139;SDS011;29803;51.048;4.686;2023-01-04T08:39:31;4.22;;;1.02;;
44139;SDS011;29803;51.048;4.686;2023-01-04T08:42:05;5.43;;;1.10;;
44139;SDS011;29803;51.048;4.686;2023-01-04T08:44:35;6.65;;;1.20;;
44139;SDS011;29803;51.048;4.686;2023-01-04T08:47:05;3.72;;;1.30;;
44139;SDS011;29803;51.048;4.686;2023-01-04T08:49:36;3.63;;;1.10;;
44139;SDS011;29803;51.048;4.686;2023-01-04T08:52:06;4.88;;;1.27;;
44139;SDS011;29803;51.048;4.686;2023-01-04T08:54:38;2.05;;;1.13;;
44139;SDS011;29803;51.048;4.686;2023-01-04T08:57:08;5.72;;;1.38;;
44139;SDS011;29803;51.048;4.686;2023-01-04T08:59:39;2.67;;;1.27;;
44139;SDS011;29803;51.048;4.686;2023-01-04T09:02:18;8.43;;;1.20;;
44139;SDS011;29803;51.048;4.686;2023-01-04T09:04:49;2.92;;;0.93;;
44139;SDS011;29803;51.048;4.686;2023-01-04T09:07:19;3.20;;;1.35;;
44139;SDS011;29803;51.048;4.686;2023-01-04T09:09:50;4.47;;;1.10;;
44139;SDS011;29803;51.048;4.686;2023-01-04T09:12:20;4.85;;;1.10;;
44139;SDS011;29803;51.048;4.686;2023-01-04T09:14:51;1.98;;;0.90;;
44139;SDS011;29803;51.048;4.686;2023-01-04T09:17:21;3.80;;;1.15;;
44139;SDS011;29803;51.048;4.686;2023-01-04T09:19:53;3.67;;;0.90;;
44139;SDS011;29803;51.048;4.686;2023-01-04T09:22:23;4.03;;;1.35;;
44139;SDS011;29803;51.048;4.686;2023-01-04T09:24:54;4.32;;;1.10;;
44139;SDS011;29803;51.048;4.686;2023-01-04T09:27:24;8.05;;;1.15;;
44139;SDS011;29803;51.048;4.686;2023-01-04T09:29:55;6.30;;;1.13;;
44139;SDS011;29803;51.048;4.686;2023-01-04T09:32:26;6.57;;;1.20;;
44139;SDS011;29803;51.048;4.686;2023-01-04T09:34:56;5.60;;;2.10;;
44139;SDS011;29803;51.048;4.686;2023-01-04T09:37:27;10.15;;;1.25;;
44139;SDS011;29803;51.048;4.686;2023-01-04T09:39:57;4.72;;;1.00;;
44139;SDS011;29803;51.048;4.686;2023-01-04T09:42:29;17.27;;;1.95;;
44139;SDS011;29803;51.048;4.686;2023-01-04T09:45:16;5.80;;;1.02;;
44139;SDS011;29803;51.048;4.686;2023-01-04T09:48:03;5.25;;;1.17;;
44139;SDS011;29803;51.048;4.686;2023-01-04T09:53:33;3.15;;;1.05;;
44139;SDS011;29803;51.048;4.686;2023-01-04T09:58:49;6.30;;;1.10;;
44139;SDS011;29803;51.048;4.686;2023-01-04T10:01:29;5.78;;;1.08;;
44139;SDS011;29803;51.048;4.686;2023-01-04T10:06:45;1.55;;;0.63;;
44139;SDS011;29803;51.048;4.686;2023-01-04T10:09:15;3.50;;;1.40;;
44139;SDS011;29803;51.048;4.686;2023-01-04T10:12:00;2.17;;;0.68;;
44139;SDS011;29803;51.048;4.686;2023-01-04T10:20:43;2.65;;;0.65;;
44139;SDS011;29803;51.048;4.686;2023-01-04T10:25:45;2.55;;;0.70;;
44139;SDS011;29803;51.048;4.686;2023-01-04T10:33:57;3.28;;;0.80;;
44139;SDS011;29803;51.048;4.686;2023-01-04T10:36:35;6.43;;;1.23;;
44139;SDS011;29803;51.048;4.686;2023-01-04T10:39:14;3.20;;;0.70;;
44139;SDS011;29803;51.048;4.686;2023-01-04T10:41:51;1.92;;;1.05;;
44139;SDS011;29803;51.048;4.686;2023-01-04T10:44:32;2.38;;;0.77;;
44139;SDS011;29803;51.048;4.686;2023-01-04T10:47:22;8.98;;;1.25;;
44139;SDS011;29803;51.048;4.686;2023-01-04T10:53:03;6.18;;;1.08;;
44139;SDS011;29803;51.048;4.686;2023-01-04T10:55:42;3.90;;;1.02;;
44139;SDS011;29803;51.048;4.686;2023-01-04T10:58:28;1.95;;;0.85;;
44139;SDS011;29803;51.048;4.686;2023-01-04T11:01:15;3.35;;;1.55;;
44139;SDS011;29803;51.048;4.686;2023-01-04T11:04:09;4.90;;;1.77;;
44139;SDS011;29803;51.048;4.686;2023-01-04T11:07:04;4.15;;;0.90;;
44139;SDS011;29803;51.048;4.686;2023-01-04T11:09:44;1.42;;;1.08;;
44139;SDS011;29803;51.048;4.686;2023-01-04T11:12:20;3.67;;;0.90;;
44139;SDS011;29803;51.048;4.686;2023-01-04T11:14:52;4.05;;;0.95;;
44139;SDS011;29803;51.048;4.686;2023-01-04T11:17:23;3.58;;;1.00;;
44139;SDS011;29803;51.048;4.686;2023-01-04T11:19:54;3.42;;;0.95;;
44139;SDS011;29803;51.048;4.686;2023-01-04T11:22:46;4.95;;;1.27;;
44139;SDS011;29803;51.048;4.686;2023-01-04T11:25:23;2.83;;;1.17;;
44139;SDS011;29803;51.048;4.686;2023-01-04T11:27:56;1.73;;;0.90;;
44139;SDS011;29803;51.048;4.686;2023-01-04T11:33:23;6.50;;;2.13;;
44139;SDS011;29803;51.048;4.686;2023-01-04T11:35:55;4.95;;;1.92;;
44139;SDS011;29803;51.048;4.686;2023-01-04T11:38:28;3.38;;;0.90;;
44139;SDS011;29803;51.048;4.686;2023-01-04T11:41:05;5.85;;;1.65;;
44139;SDS011;29803;51.048;4.686;2023-01-04T11:43:38;3.03;;;0.90;;
44139;SDS011;29803;51.048;4.686;2023-01-04T11:48:46;3.55;;;1.33;;
44139;SDS011;29803;51.048;4.686;2023-01-04T11:53:58;6.38;;;2.63;;
44139;SDS011;29803;51.048;4.686;2023-01-04T11:56:57;1.65;;;0.82;;
44139;SDS011;29803;51.048;4.686;2023-01-04T11:59:37;1.95;;;1.20;;
44139;SDS011;29803;51.048;4.686;2023-01-04T12:02:23;6.93;;;1.95;;
44139;SDS011;29803;51.048;4.686;2023-01-04T12:04:54;2.85;;;1.90;;
44139;SDS011;29803;51.048;4.686;2023-01-04T12:07:27;1.63;;;1.13;;
44139;SDS011;29803;51.048;4.686;2023-01-04T12:10:01;5.57;;;1.33;;
44139;SDS011;29803;51.048;4.686;2023-01-04T12:12:46;4.95;;;1.30;;
44139;SDS011;29803;51.048;4.686;2023-01-04T12:15:19;3.20;;;1.83;;
44139;SDS011;29803;51.048;4.686;2023-01-04T12:17:58;2.97;;;1.25;;
44139;SDS011;29803;51.048;4.686;2023-01-04T12:20:34;3.17;;;1.33;;
44139;SDS011;29803;51.048;4.686;2023-01-04T12:23:05;3.20;;;1.17;;
44139;SDS011;29803;51.048;4.686;2023-01-04T12:25:39;9.13;;;1.50;;
44139;SDS011;29803;51.048;4.686;2023-01-04T12:28:34;2.42;;;1.30;;
44139;SDS011;29803;51.048;4.686;2023-01-04T12:33:51;3.03;;;1.02;;
44139;SDS011;29803;51.048;4.686;2023-01-04T12:50:18;4.15;;;1.30;;
44139;SDS011;29803;51.048;4.686;2023-01-04T12:52:52;1.83;;;1.00;;
44139;SDS011;29803;51.048;4.686;2023-01-04T12:58:02;1.90;;;1.35;;
44139;SDS011;29803;51.048;4.686;2023-01-04T13:06:00;4.05;;;0.93;;
44139;SDS011;29803;51.048;4.686;2023-01-04T13:08:40;3.25;;;1.10;;
44139;SDS011;29803;51.048;4.686;2023-01-04T13:11:22;1.55;;;0.82;;
44139;SDS011;29803;51.048;4.686;2023-01-04T13:19:19;1.65;;;0.95;;
44139;SDS011;29803;51.048;4.686;2023-01-04T13:21:52;3.17;;;1.00;;
44139;SDS011;29803;51.048;4.686;2023-01-04T13:27:04;7.10;;;6.20;;
44139;SDS011;29803;51.048;4.686;2023-01-04T13:29:38;7.50;;;3.58;;
44139;SDS011;29803;51.048;4.686;2023-01-04T13:32:14;1.08;;;0.98;;
44139;SDS011;29803;51.048;4.686;2023-01-04T13:34:54;2.90;;;1.10;;
44139;SDS011;29803;51.048;4.686;2023-01-04T13:37:31;2.40;;;1.77;;
44139;SDS011;29803;51.048;4.686;2023-01-04T13:43:16;1.63;;;1.00;;
44139;SDS011;29803;51.048;4.686;2023-01-04T13:48:43;5.80;;;1.60;;
44139;SDS011;29803;51.048;4.686;2023-01-04T13:51:25;2.67;;;1.58;;
44139;SDS011;29803;51.048;4.686;2023-01-04T13:54:04;4.03;;;1.40;;
44139;SDS011;29803;51.048;4.686;2023-01-04T13:56:36;3.95;;;1.10;;
44139;SDS011;29803;51.048;4.686;2023-01-04T13:59:07;1.58;;;1.13;;
44139;SDS011;29803;51.048;4.686;2023-01-04T14:01:42;8.77;;;1.58;;
44139;SDS011;29803;51.048;4.686;2023-01-04T14:04:17;6.15;;;1.25;;
44139;SDS011;29803;51.048;4.686;2023-01-04T14:06:48;3.70;;;1.33;;
44139;SDS011;29803;51.048;4.686;2023-01-04T14:09:41;5.18;;;1.52;;
44139;SDS011;29803;51.048;4.686;2023-01-04T14:12:33;3.50;;;1.70;;
44139;SDS011;29803;51.048;4.686;2023-01-04T14:17:52;6.57;;;2.30;;
44139;SDS011;29803;51.048;4.686;2023-01-04T14:22:56;7.70;;;5.30;;
44139;SDS011;29803;51.048;4.686;2023-01-04T14:36:18;14.85;;;5.50;;
44139;SDS011;29803;51.048;4.686;2023-01-04T14:41:34;13.80;;;5.75;;
44139;SDS011;29803;51.048;4.686;2023-01-04T14:44:14;8.00;;;4.10;;
44139;SDS011;29803;51.048;4.686;2023-01-04T14:46:48;8.23;;;2.95;;
44139;SDS011;29803;51.048;4.686;2023-01-04T14:49:23;12.32;;;7.45;;
44139;SDS011;29803;51.048;4.686;2023-01-04T14:51:58;9.40;;;4.88;;
44139;SDS011;29803;51.048;4.686;2023-01-04T14:54:30;8.95;;;3.63;;
44139;SDS011;29803;51.048;4.686;2023-01-04T14:57:01;8.57;;;3.58;;
44139;SDS011;29803;51.048;4.686;2023-01-04T14:59:31;9.00;;;4.38;;
44139;SDS011;29803;51.048;4.686;2023-01-04T15:02:02;7.00;;;2.80;;
44139;SDS011;29803;51.048;4.686;2023-01-04T15:04:32;5.63;;;2.28;;
44139;SDS011;29803;51.048;4.686;2023-01-04T15:07:03;9.10;;;2.30;;
44139;SDS011;29803;51.048;4.686;2023-01-04T15:09:33;4.35;;;2.10;;
44139;SDS011;29803;51.048;4.686;2023-01-04T15:12:05;7.05;;;3.50;;
44139;SDS011;29803;51.048;4.686;2023-01-04T15:14:36;3.08;;;1.73;;
44139;SDS011;29803;51.048;4.686;2023-01-04T15:17:06;4.95;;;1.60;;
44139;SDS011;29803;51.048;4.686;2023-01-04T15:19:37;9.23;;;3.97;;
44139;SDS011;29803;51.048;4.686;2023-01-04T15:22:08;6.53;;;2.70;;
44139;SDS011;29803;51.048;4.686;2023-01-04T15:24:38;6.43;;;2.78;;
44139;SDS011;29803;51.048;4.686;2023-01-04T15:27:09;5.15;;;1.60;;
44139;SDS011;29803;51.048;4.686;2023-01-04T15:29:39;2.80;;;1.20;;
44139;SDS011;29803;51.048;4.686;2023-01-04T15:32:10;4.13;;;1.70;;
44139;SDS011;29803;51.048;4.686;2023-01-04T15:34:40;7.80;;;2.38;;
44139;SDS011;29803;51.048;4.686;2023-01-04T15:37:12;6.70;;;1.92;;
44139;SDS011;29803;51.048;4.686;2023-01-04T15:39:42;11.07;;;2.33;;
44139;SDS011;29803;51.048;4.686;2023-01-04T15:42:13;7.25;;;1.63;;
44139;SDS011;29803;51.048;4.686;2023-01-04T15:45:02;6.15;;;2.58;;
44139;SDS011;29803;51.048;4.686;2023-01-04T15:47:35;6.32;;;1.52;;
44139;SDS011;29803;51.048;4.686;2023-01-04T15:50:05;9.52;;;1.60;;
44139;SDS011;29803;51.048;4.686;2023-01-04T15:52:36;9.20;;;2.00;;
44139;SDS011;29803;51.048;4.686;2023-01-04T15:55:07;7.95;;;2.13;;
44139;SDS011;29803;51.048;4.686;2023-01-04T15:57:37;61.35;;;35.20;;
44139;SDS011;29803;51.048;4.686;2023-01-04T16:00:08;10.93;;;5.47;;
44139;SDS011;29803;51.048;4.686;2023-01-04T16:02:39;19.08;;;7.13;;
44139;SDS011;29803;51.048;4.686;2023-01-04T16:05:09;12.40;;;5.15;;
44139;SDS011;29803;51.048;4.686;2023-01-04T16:07:40;21.15;;;7.75;;
44139;SDS011;29803;51.048;4.686;2023-01-04T16:10:11;16.05;;;4.28;;
44139;SDS011;29803;51.048;4.686;2023-01-04T16:12:42;24.58;;;9.02;;
44139;SDS011;29803;51.048;4.686;2023-01-04T16:15:17;22.05;;;3.97;;
44139;SDS011;29803;51.048;4.686;2023-01-04T16:17:49;22.40;;;5.90;;
44139;SDS011;29803;51.048;4.686;2023-01-04T16:20:20;19.60;;;3.25;;
44139;SDS011;29803;51.048;4.686;2023-01-04T16:22:51;23.38;;;5.10;;
44139;SDS011;29803;51.048;4.686;2023-01-04T16:25:22;27.38;;;6.18;;
44139;SDS011;29803;51.048;4.686;2023-01-04T16:27:53;25.35;;;4.43;;
44139;SDS011;29803;51.048;4.686;2023-01-04T16:30:23;35.88;;;4.45;;
44139;SDS011;29803;51.048;4.686;2023-01-04T16:32:54;28.85;;;4.72;;
44139;SDS011;29803;51.048;4.686;2023-01-04T16:35:24;32.85;;;5.03;;
44139;SDS011;29803;51.048;4.686;2023-01-04T16:37:55;33.53;;;4.85;;
44139;SDS011;29803;51.048;4.686;2023-01-04T16:40:25;34.67;;;5.15;;
44139;SDS011;29803;51.048;4.686;2023-01-04T16:42:56;27.73;;;4.70;;
44139;SDS011;29803;51.048;4.686;2023-01-04T16:45:27;33.25;;;5.45;;
44139;SDS011;29803;51.048;4.686;2023-01-04T16:47:57;35.17;;;4.65;;
44139;SDS011;29803;51.048;4.686;2023-01-04T16:50:28;29.23;;;4.63;;
44139;SDS011;29803;51.048;4.686;2023-01-04T16:52:59;34.80;;;5.40;;
44139;SDS011;29803;51.048;4.686;2023-01-04T16:55:29;29.63;;;5.68;;
44139;SDS011;29803;51.048;4.686;2023-01-04T16:58:00;37.53;;;6.75;;
44139;SDS011;29803;51.048;4.686;2023-01-04T17:00:30;33.72;;;10.70;;
44139;SDS011;29803;51.048;4.686;2023-01-04T17:03:01;29.45;;;6.80;;
44139;SDS011;29803;51.048;4.686;2023-01-04T17:05:31;33.90;;;5.80;;
44139;SDS011;29803;51.048;4.686;2023-01-04T17:08:08;37.58;;;5.07;;
44139;SDS011;29803;51.048;4.686;2023-01-04T17:10:38;34.00;;;5.43;;
44139;SDS011;29803;51.048;4.686;2023-01-04T17:13:09;41.05;;;5.93;;
44139;SDS011;29803;51.048;4.686;2023-01-04T17:15:39;42.42;;;5.22;;
44139;SDS011;29803;51.048;4.686;2023-01-04T17:18:10;40.35;;;5.75;;
44139;SDS011;29803;51.048;4.686;2023-01-04T17:20:41;45.78;;;5.45;;
44139;SDS011;29803;51.048;4.686;2023-01-04T17:23:12;29.75;;;5.78;;
44139;SDS011;29803;51.048;4.686;2023-01-04T17:25:42;45.53;;;5.60;;
44139;SDS011;29803;51.048;4.686;2023-01-04T17:28:13;31.38;;;5.50;;
44139;SDS011;29803;51.048;4.686;2023-01-04T17:30:44;32.28;;;5.53;;
44139;SDS011;29803;51.048;4.686;2023-01-04T17:33:15;37.60;;;6.00;;